METAR AND TAF INFORMATION
METAR FOR LIPZ
ADDS - METARS form results

(1338 UTC 20 January 2021)
Data provider http://aviationweather.gov/metar/data/
 
METAR text: LIPZ 201320Z 35005KT 8000 BKN050 04/00 Q1021 NOSIG
Conditions at: LIPZ (VENEZIA/TESSERA , IT) observed 1320 UTC 20 January 2021
Temperature: 4.0°C (39°F)
Dewpoint: 0.0°C (32°F) [RH = 75%]
Pressure (altimeter): 30.15 inches Hg (1021.0 mb)
Winds: from the N (350 degrees) at 6 MPH (5 knots; 2.6 m/s)
Visibility: 5 miles ( 8 km)
Ceiling: 5000 feet AGL
Clouds: broken clouds at 5000 feet AGL
Weather: no significant weather observed at this time

METAR text: LIPZ 201250Z 34005KT 8000 BKN050 04/M00 Q1021 NOSIG
Conditions at: LIPZ (VENEZIA/TESSERA , IT) observed 1250 UTC 20 January 2021
Temperature: 4.0°C (39°F)
Dewpoint: 0.0°C (32°F) [RH = 75%]
Pressure (altimeter): 30.15 inches Hg (1021.0 mb)
Winds: from the NNW (340 degrees) at 6 MPH (5 knots; 2.6 m/s)
Visibility: 5 miles ( 8 km)
Ceiling: 5000 feet AGL
Clouds: broken clouds at 5000 feet AGL
Weather: no significant weather observed at this time

Forecast for: LIPZ (VENEZIA/TESSERA , IT)
Text: TAF LIPZ 201100Z 2012/2118 35005KT 6000 BKN030
Forecast period: 1200 UTC 20 January 2021 to 1800 UTC 21 January 2021
Forecast type: FROM: standard forecast or significant change
Winds: from the N (350 degrees) at 6 MPH (5 knots; 2.6 m/s)
Visibility: 4 miles (6 km)
Ceiling: 3000 feet AGL
Clouds: broken clouds at 3000 feet AGL
Weather: no significant weather forecast for this period
Text: TEMPO 2012/2016 RA
Forecast period: 1200 to 1600 UTC 20 January 2021
Forecast type: TEMPORARY: The following changes expected for less than half the time period
Visibility: missing
Ceiling: unknown
Clouds: missing
Weather: RA  (moderate rain)

 AIRPORT MAP

 RUNWAY INFORMATION
Runway 04L Runway length 9121 ft Runway width 148 ft
Runway elevation 7 ft Runway displaced threshold 308 ft Runway heading 42
Runway 22R Runway length 9121 ft Runway width 148 ft
Runway elevation 7 ft Runway displaced threshold 0 ft Runway heading 222
Runway 04R Runway length 10827 ft Runway width 148 ft
Runway elevation 7 ft Runway displaced threshold 0 ft Runway heading 42
Runway 22L Runway length 10827 ft Runway width 148 ft
Runway elevation 7 ft Runway displaced threshold 0 ft Runway heading 222

 AIRPORT FREQUENCIES
Type APP Name APP Frequency 118.9 MHZ
Type ATIS Name ATIS Frequency 122.225 MHZ
Type GND Name GND Frequency 121.7 MHZ
Type TWR Name TWR Frequency 120.2 MHZ

 AIRPORT NEAR NAVIGATION AIDS
Type VOR-DME Name Tessera Frequency 115300 KHZ
Type NDB Name Venezia Frequency 379 KHZ